Aviation Digital Data Service (ADDS)

Output produced by METARs form (2329 UTC 15 February 2019)
found at http://www.aviationweather.gov/metar/data/
 
Forecast for: VTSE (CHUMPHON , TH)
Text: TAF VTSE 151700Z 1518/1618 13006KT 9999 FEW020
Forecast period: 1800 UTC 15 February 2019 to 1800 UTC 16 February 2019
Forecast type: FROM: standard forecast or significant change
Winds: from the SE (130 degrees) at 7 MPH (6 knots; 3.1 m/s)
Visibility: 6 or more miles 10+ km)
Ceiling: at least 12,000 feet AGL
Clouds: few clouds at 2000 feet AGL
Weather: no significant weather forecast for this period